sensor_id;sensor_type;location;lat;lon;timestamp;P1;durP1;ratioP1;P2;durP2;ratioP2
66129;SDS011;52930;51.464;11.764;2024-01-11T00:01:15;48.15;;;16.88;;
66129;SDS011;52930;51.464;11.764;2024-01-11T00:03:40;52.97;;;16.73;;
66129;SDS011;52930;51.464;11.764;2024-01-11T00:06:06;61.97;;;18.87;;
66129;SDS011;52930;51.464;11.764;2024-01-11T00:08:32;57.43;;;18.03;;
66129;SDS011;52930;51.464;11.764;2024-01-11T00:10:57;49.78;;;16.58;;
66129;SDS011;52930;51.464;11.764;2024-01-11T00:13:22;48.95;;;17.90;;
66129;SDS011;52930;51.464;11.764;2024-01-11T00:15:48;61.60;;;18.13;;
66129;SDS011;52930;51.464;11.764;2024-01-11T00:18:13;52.07;;;16.97;;
66129;SDS011;52930;51.464;11.764;2024-01-11T00:20:38;59.87;;;17.60;;
66129;SDS011;52930;51.464;11.764;2024-01-11T00:23:04;54.47;;;16.97;;
66129;SDS011;52930;51.464;11.764;2024-01-11T00:25:29;55.03;;;18.17;;
66129;SDS011;52930;51.464;11.764;2024-01-11T00:27:54;56.17;;;16.70;;
66129;SDS011;52930;51.464;11.764;2024-01-11T00:30:19;51.63;;;18.10;;
66129;SDS011;52930;51.464;11.764;2024-01-11T00:32:45;50.13;;;16.57;;
66129;SDS011;52930;51.464;11.764;2024-01-11T00:35:10;52.53;;;17.13;;
66129;SDS011;52930;51.464;11.764;2024-01-11T00:37:36;58.30;;;17.33;;
66129;SDS011;52930;51.464;11.764;2024-01-11T00:40:01;57.17;;;17.63;;
66129;SDS011;52930;51.464;11.764;2024-01-11T00:42:27;52.95;;;16.60;;
66129;SDS011;52930;51.464;11.764;2024-01-11T00:44:52;54.63;;;15.70;;
66129;SDS011;52930;51.464;11.764;2024-01-11T00:47:17;56.60;;;17.90;;
66129;SDS011;52930;51.464;11.764;2024-01-11T00:49:43;50.97;;;16.53;;
66129;SDS011;52930;51.464;11.764;2024-01-11T00:52:08;56.27;;;17.17;;
66129;SDS011;52930;51.464;11.764;2024-01-11T00:54:34;58.63;;;17.75;;
66129;SDS011;52930;51.464;11.764;2024-01-11T00:57:00;49.40;;;15.53;;
66129;SDS011;52930;51.464;11.764;2024-01-11T00:59:25;55.97;;;16.80;;
66129;SDS011;52930;51.464;11.764;2024-01-11T01:01:50;52.73;;;16.10;;
66129;SDS011;52930;51.464;11.764;2024-01-11T01:04:16;51.97;;;16.70;;
66129;SDS011;52930;51.464;11.764;2024-01-11T01:06:41;57.78;;;17.55;;
66129;SDS011;52930;51.464;11.764;2024-01-11T01:09:07;57.30;;;17.27;;
66129;SDS011;52930;51.464;11.764;2024-01-11T01:11:33;55.85;;;16.42;;
66129;SDS011;52930;51.464;11.764;2024-01-11T01:13:58;56.25;;;17.50;;
66129;SDS011;52930;51.464;11.764;2024-01-11T01:16:23;46.85;;;16.75;;
66129;SDS011;52930;51.464;11.764;2024-01-11T01:18:48;50.55;;;16.05;;
66129;SDS011;52930;51.464;11.764;2024-01-11T01:21:14;49.23;;;16.33;;
66129;SDS011;52930;51.464;11.764;2024-01-11T01:23:39;54.17;;;17.67;;
66129;SDS011;52930;51.464;11.764;2024-01-11T01:26:06;53.37;;;16.03;;
66129;SDS011;52930;51.464;11.764;2024-01-11T01:28:31;51.60;;;16.50;;
66129;SDS011;52930;51.464;11.764;2024-01-11T01:30:56;50.95;;;15.70;;
66129;SDS011;52930;51.464;11.764;2024-01-11T01:33:22;61.22;;;16.85;;
66129;SDS011;52930;51.464;11.764;2024-01-11T01:35:47;57.40;;;18.73;;
66129;SDS011;52930;51.464;11.764;2024-01-11T01:38:12;50.93;;;16.97;;
66129;SDS011;52930;51.464;11.764;2024-01-11T01:40:38;50.53;;;17.17;;
66129;SDS011;52930;51.464;11.764;2024-01-11T01:43:06;57.13;;;16.73;;
66129;SDS011;52930;51.464;11.764;2024-01-11T01:45:31;54.37;;;16.77;;
66129;SDS011;52930;51.464;11.764;2024-01-11T01:47:57;52.30;;;16.95;;
66129;SDS011;52930;51.464;11.764;2024-01-11T01:50:22;51.30;;;15.75;;
66129;SDS011;52930;51.464;11.764;2024-01-11T01:52:48;42.20;;;14.48;;
66129;SDS011;52930;51.464;11.764;2024-01-11T01:55:14;59.70;;;18.20;;
66129;SDS011;52930;51.464;11.764;2024-01-11T01:57:40;55.95;;;18.77;;
66129;SDS011;52930;51.464;11.764;2024-01-11T02:00:05;53.00;;;16.17;;
66129;SDS011;52930;51.464;11.764;2024-01-11T02:02:31;75.40;;;17.80;;
66129;SDS011;52930;51.464;11.764;2024-01-11T02:04:58;56.80;;;17.25;;
66129;SDS011;52930;51.464;11.764;2024-01-11T02:07:24;46.57;;;17.17;;
66129;SDS011;52930;51.464;11.764;2024-01-11T02:09:49;52.17;;;17.20;;
66129;SDS011;52930;51.464;11.764;2024-01-11T02:12:15;55.63;;;16.10;;
66129;SDS011;52930;51.464;11.764;2024-01-11T02:14:40;47.27;;;16.60;;
66129;SDS011;52930;51.464;11.764;2024-01-11T02:17:06;61.43;;;18.73;;
66129;SDS011;52930;51.464;11.764;2024-01-11T02:19:31;60.83;;;17.47;;
66129;SDS011;52930;51.464;11.764;2024-01-11T02:21:59;56.58;;;16.58;;
66129;SDS011;52930;51.464;11.764;2024-01-11T02:24:25;52.85;;;16.55;;
66129;SDS011;52930;51.464;11.764;2024-01-11T02:27:02;57.97;;;17.58;;
66129;SDS011;52930;51.464;11.764;2024-01-11T02:29:29;45.78;;;15.38;;
66129;SDS011;52930;51.464;11.764;2024-01-11T02:31:57;50.90;;;16.83;;
66129;SDS011;52930;51.464;11.764;2024-01-11T02:34:24;63.58;;;17.20;;
66129;SDS011;52930;51.464;11.764;2024-01-11T02:36:49;53.13;;;16.90;;
66129;SDS011;52930;51.464;11.764;2024-01-11T02:39:16;49.85;;;16.90;;
66129;SDS011;52930;51.464;11.764;2024-01-11T02:41:42;60.92;;;17.30;;
66129;SDS011;52930;51.464;11.764;2024-01-11T02:44:08;51.67;;;17.38;;
66129;SDS011;52930;51.464;11.764;2024-01-11T02:46:33;51.67;;;16.37;;
66129;SDS011;52930;51.464;11.764;2024-01-11T02:48:59;65.03;;;18.60;;
66129;SDS011;52930;51.464;11.764;2024-01-11T02:51:24;54.60;;;17.40;;
66129;SDS011;52930;51.464;11.764;2024-01-11T02:53:49;55.47;;;17.30;;
66129;SDS011;52930;51.464;11.764;2024-01-11T02:56:14;58.17;;;18.33;;
66129;SDS011;52930;51.464;11.764;2024-01-11T02:58:40;59.22;;;18.15;;
66129;SDS011;52930;51.464;11.764;2024-01-11T03:01:05;51.40;;;16.75;;
66129;SDS011;52930;51.464;11.764;2024-01-11T03:03:31;52.78;;;16.95;;
66129;SDS011;52930;51.464;11.764;2024-01-11T03:05:56;54.30;;;15.97;;
66129;SDS011;52930;51.464;11.764;2024-01-11T03:08:21;54.93;;;17.00;;
66129;SDS011;52930;51.464;11.764;2024-01-11T03:10:47;57.30;;;18.03;;
66129;SDS011;52930;51.464;11.764;2024-01-11T03:13:12;56.90;;;16.90;;
66129;SDS011;52930;51.464;11.764;2024-01-11T03:15:37;56.87;;;16.07;;
66129;SDS011;52930;51.464;11.764;2024-01-11T03:18:03;60.00;;;17.93;;
66129;SDS011;52930;51.464;11.764;2024-01-11T03:20:28;51.87;;;17.23;;
66129;SDS011;52930;51.464;11.764;2024-01-11T03:22:54;54.10;;;17.77;;
66129;SDS011;52930;51.464;11.764;2024-01-11T03:25:19;56.23;;;17.60;;
66129;SDS011;52930;51.464;11.764;2024-01-11T03:27:44;53.40;;;18.63;;
66129;SDS011;52930;51.464;11.764;2024-01-11T03:30:10;50.80;;;16.67;;
66129;SDS011;52930;51.464;11.764;2024-01-11T03:32:36;59.08;;;18.85;;
66129;SDS011;52930;51.464;11.764;2024-01-11T03:35:01;47.13;;;15.93;;
66129;SDS011;52930;51.464;11.764;2024-01-11T03:37:27;53.83;;;17.07;;
66129;SDS011;52930;51.464;11.764;2024-01-11T03:39:52;65.27;;;18.80;;
66129;SDS011;52930;51.464;11.764;2024-01-11T03:42:18;62.17;;;20.80;;
66129;SDS011;52930;51.464;11.764;2024-01-11T03:44:43;50.07;;;16.50;;
66129;SDS011;52930;51.464;11.764;2024-01-11T03:47:08;54.70;;;17.02;;
66129;SDS011;52930;51.464;11.764;2024-01-11T03:49:33;65.53;;;19.35;;
66129;SDS011;52930;51.464;11.764;2024-01-11T03:51:59;61.90;;;17.42;;
66129;SDS011;52930;51.464;11.764;2024-01-11T03:54:24;48.08;;;18.00;;
66129;SDS011;52930;51.464;11.764;2024-01-11T03:56:49;63.07;;;18.77;;
66129;SDS011;52930;51.464;11.764;2024-01-11T03:59:15;60.73;;;18.53;;
66129;SDS011;52930;51.464;11.764;2024-01-11T04:01:40;61.63;;;19.83;;
66129;SDS011;52930;51.464;11.764;2024-01-11T04:04:06;60.20;;;19.23;;
66129;SDS011;52930;51.464;11.764;2024-01-11T04:06:31;56.00;;;16.60;;
66129;SDS011;52930;51.464;11.764;2024-01-11T04:08:56;58.97;;;18.47;;
66129;SDS011;52930;51.464;11.764;2024-01-11T04:11:22;57.33;;;19.27;;
66129;SDS011;52930;51.464;11.764;2024-01-11T04:13:47;62.00;;;18.63;;
66129;SDS011;52930;51.464;11.764;2024-01-11T04:16:12;63.85;;;18.77;;
66129;SDS011;52930;51.464;11.764;2024-01-11T04:18:38;58.90;;;17.60;;
66129;SDS011;52930;51.464;11.764;2024-01-11T04:21:03;51.90;;;16.70;;
66129;SDS011;52930;51.464;11.764;2024-01-11T04:23:29;63.25;;;19.15;;
66129;SDS011;52930;51.464;11.764;2024-01-11T04:25:55;55.53;;;18.05;;
66129;SDS011;52930;51.464;11.764;2024-01-11T04:28:20;57.20;;;16.73;;
66129;SDS011;52930;51.464;11.764;2024-01-11T04:30:45;54.33;;;17.27;;
66129;SDS011;52930;51.464;11.764;2024-01-11T04:33:11;54.27;;;17.83;;
66129;SDS011;52930;51.464;11.764;2024-01-11T04:35:36;54.93;;;17.23;;
66129;SDS011;52930;51.464;11.764;2024-01-11T04:38:02;54.05;;;18.08;;
66129;SDS011;52930;51.464;11.764;2024-01-11T04:40:27;56.70;;;17.60;;
66129;SDS011;52930;51.464;11.764;2024-01-11T04:42:53;54.57;;;18.27;;
66129;SDS011;52930;51.464;11.764;2024-01-11T04:45:18;61.07;;;18.50;;
66129;SDS011;52930;51.464;11.764;2024-01-11T04:47:43;55.23;;;16.93;;
66129;SDS011;52930;51.464;11.764;2024-01-11T04:50:09;51.87;;;16.03;;
66129;SDS011;52930;51.464;11.764;2024-01-11T04:52:34;55.33;;;16.67;;
66129;SDS011;52930;51.464;11.764;2024-01-11T04:54:59;53.43;;;17.07;;
66129;SDS011;52930;51.464;11.764;2024-01-11T04:57:24;60.13;;;18.00;;
66129;SDS011;52930;51.464;11.764;2024-01-11T04:59:50;61.53;;;19.57;;
66129;SDS011;52930;51.464;11.764;2024-01-11T05:02:15;58.50;;;17.70;;
66129;SDS011;52930;51.464;11.764;2024-01-11T05:04:40;55.37;;;18.43;;
66129;SDS011;52930;51.464;11.764;2024-01-11T05:07:06;47.33;;;16.27;;
66129;SDS011;52930;51.464;11.764;2024-01-11T05:09:31;56.33;;;17.57;;
66129;SDS011;52930;51.464;11.764;2024-01-11T05:11:56;57.23;;;17.93;;
66129;SDS011;52930;51.464;11.764;2024-01-11T05:14:22;51.23;;;16.97;;
66129;SDS011;52930;51.464;11.764;2024-01-11T05:16:47;55.45;;;16.48;;
66129;SDS011;52930;51.464;11.764;2024-01-11T05:19:12;61.58;;;20.05;;
66129;SDS011;52930;51.464;11.764;2024-01-11T05:21:37;58.42;;;17.73;;
66129;SDS011;52930;51.464;11.764;2024-01-11T05:24:03;67.80;;;17.80;;
66129;SDS011;52930;51.464;11.764;2024-01-11T05:26:28;53.17;;;18.60;;
66129;SDS011;52930;51.464;11.764;2024-01-11T05:28:53;64.10;;;18.53;;
66129;SDS011;52930;51.464;11.764;2024-01-11T05:31:19;58.23;;;17.87;;
66129;SDS011;52930;51.464;11.764;2024-01-11T05:33:44;67.77;;;20.37;;
66129;SDS011;52930;51.464;11.764;2024-01-11T05:36:10;66.45;;;19.65;;
66129;SDS011;52930;51.464;11.764;2024-01-11T05:38:37;49.07;;;16.60;;
66129;SDS011;52930;51.464;11.764;2024-01-11T05:41:03;66.07;;;19.33;;
66129;SDS011;52930;51.464;11.764;2024-01-11T05:43:28;49.30;;;16.23;;
66129;SDS011;52930;51.464;11.764;2024-01-11T05:45:54;52.10;;;17.03;;
66129;SDS011;52930;51.464;11.764;2024-01-11T05:48:19;51.87;;;16.60;;
66129;SDS011;52930;51.464;11.764;2024-01-11T05:50:45;44.77;;;16.03;;
66129;SDS011;52930;51.464;11.764;2024-01-11T05:53:11;49.23;;;17.83;;
66129;SDS011;52930;51.464;11.764;2024-01-11T05:55:36;49.95;;;17.73;;
66129;SDS011;52930;51.464;11.764;2024-01-11T05:58:01;63.83;;;19.33;;
66129;SDS011;52930;51.464;11.764;2024-01-11T06:00:27;63.17;;;18.30;;
66129;SDS011;52930;51.464;11.764;2024-01-11T06:02:52;63.53;;;18.70;;
66129;SDS011;52930;51.464;11.764;2024-01-11T06:05:17;59.75;;;18.73;;
66129;SDS011;52930;51.464;11.764;2024-01-11T06:07:43;60.20;;;19.48;;
66129;SDS011;52930;51.464;11.764;2024-01-11T06:10:08;61.67;;;20.37;;
66129;SDS011;52930;51.464;11.764;2024-01-11T06:12:34;54.27;;;17.77;;
66129;SDS011;52930;51.464;11.764;2024-01-11T06:15:00;49.93;;;15.37;;
66129;SDS011;52930;51.464;11.764;2024-01-11T06:17:25;49.13;;;15.52;;
66129;SDS011;52930;51.464;11.764;2024-01-11T06:19:51;56.87;;;18.60;;
66129;SDS011;52930;51.464;11.764;2024-01-11T06:22:16;66.80;;;20.40;;
66129;SDS011;52930;51.464;11.764;2024-01-11T06:24:42;53.67;;;17.83;;
66129;SDS011;52930;51.464;11.764;2024-01-11T06:27:07;79.70;;;23.27;;
66129;SDS011;52930;51.464;11.764;2024-01-11T06:29:32;61.53;;;19.97;;
66129;SDS011;52930;51.464;11.764;2024-01-11T06:31:57;66.07;;;19.77;;
66129;SDS011;52930;51.464;11.764;2024-01-11T06:34:23;63.60;;;19.80;;
66129;SDS011;52930;51.464;11.764;2024-01-11T06:36:48;54.43;;;17.93;;
66129;SDS011;52930;51.464;11.764;2024-01-11T06:39:13;62.40;;;20.77;;
66129;SDS011;52930;51.464;11.764;2024-01-11T06:41:39;55.53;;;19.10;;
66129;SDS011;52930;51.464;11.764;2024-01-11T06:44:04;32.97;;;12.73;;
66129;SDS011;52930;51.464;11.764;2024-01-11T06:46:29;35.57;;;13.10;;
66129;SDS011;52930;51.464;11.764;2024-01-11T06:48:55;49.93;;;16.73;;
66129;SDS011;52930;51.464;11.764;2024-01-11T06:51:21;62.33;;;20.75;;
66129;SDS011;52930;51.464;11.764;2024-01-11T06:53:46;44.45;;;12.93;;
66129;SDS011;52930;51.464;11.764;2024-01-11T06:56:13;69.23;;;20.60;;
66129;SDS011;52930;51.464;11.764;2024-01-11T06:58:41;68.95;;;21.73;;
66129;SDS011;52930;51.464;11.764;2024-01-11T07:01:07;59.97;;;20.23;;
66129;SDS011;52930;51.464;11.764;2024-01-11T07:03:32;79.17;;;22.73;;
66129;SDS011;52930;51.464;11.764;2024-01-11T07:05:57;58.20;;;17.13;;
66129;SDS011;52930;51.464;11.764;2024-01-11T07:08:23;50.13;;;18.37;;
66129;SDS011;52930;51.464;11.764;2024-01-11T07:10:48;36.70;;;14.07;;
66129;SDS011;52930;51.464;11.764;2024-01-11T07:13:13;35.20;;;12.07;;
66129;SDS011;52930;51.464;11.764;2024-01-11T07:15:41;60.93;;;18.53;;
66129;SDS011;52930;51.464;11.764;2024-01-11T07:18:07;40.97;;;14.73;;
66129;SDS011;52930;51.464;11.764;2024-01-11T07:20:32;63.97;;;19.58;;
66129;SDS011;52930;51.464;11.764;2024-01-11T07:22:57;28.67;;;12.40;;
66129;SDS011;52930;51.464;11.764;2024-01-11T07:25:22;39.07;;;12.77;;
66129;SDS011;52930;51.464;11.764;2024-01-11T07:27:48;26.53;;;9.27;;
66129;SDS011;52930;51.464;11.764;2024-01-11T07:30:13;47.40;;;16.07;;
66129;SDS011;52930;51.464;11.764;2024-01-11T07:32:39;54.03;;;17.60;;
66129;SDS011;52930;51.464;11.764;2024-01-11T07:35:04;63.47;;;20.30;;
66129;SDS011;52930;51.464;11.764;2024-01-11T07:37:31;64.30;;;21.50;;
66129;SDS011;52930;51.464;11.764;2024-01-11T07:39:56;63.87;;;22.07;;
66129;SDS011;52930;51.464;11.764;2024-01-11T07:42:22;69.17;;;19.57;;
66129;SDS011;52930;51.464;11.764;2024-01-11T07:44:47;53.77;;;18.57;;
66129;SDS011;52930;51.464;11.764;2024-01-11T07:47:12;53.70;;;15.90;;
66129;SDS011;52930;51.464;11.764;2024-01-11T07:49:38;71.87;;;23.57;;
66129;SDS011;52930;51.464;11.764;2024-01-11T07:52:03;69.70;;;22.55;;
66129;SDS011;52930;51.464;11.764;2024-01-11T07:54:29;76.23;;;22.63;;
66129;SDS011;52930;51.464;11.764;2024-01-11T07:56:56;58.00;;;17.65;;
66129;SDS011;52930;51.464;11.764;2024-01-11T07:59:21;65.40;;;19.90;;
66129;SDS011;52930;51.464;11.764;2024-01-11T08:01:46;51.00;;;18.70;;
66129;SDS011;52930;51.464;11.764;2024-01-11T08:04:13;56.70;;;17.33;;
66129;SDS011;52930;51.464;11.764;2024-01-11T08:06:38;41.10;;;12.03;;
66129;SDS011;52930;51.464;11.764;2024-01-11T08:09:04;42.63;;;15.00;;
66129;SDS011;52930;51.464;11.764;2024-01-11T08:11:29;43.25;;;15.77;;
66129;SDS011;52930;51.464;11.764;2024-01-11T08:13:56;70.38;;;20.83;;
66129;SDS011;52930;51.464;11.764;2024-01-11T08:16:21;63.63;;;20.90;;
66129;SDS011;52930;51.464;11.764;2024-01-11T08:18:46;66.60;;;21.97;;
66129;SDS011;52930;51.464;11.764;2024-01-11T08:21:13;70.90;;;21.27;;
66129;SDS011;52930;51.464;11.764;2024-01-11T08:23:39;45.20;;;13.35;;
66129;SDS011;52930;51.464;11.764;2024-01-11T08:26:09;39.70;;;14.10;;
66129;SDS011;52930;51.464;11.764;2024-01-11T08:28:34;63.13;;;18.10;;
66129;SDS011;52930;51.464;11.764;2024-01-11T08:31:00;62.53;;;19.53;;
66129;SDS011;52930;51.464;11.764;2024-01-11T08:33:25;67.23;;;21.10;;
66129;SDS011;52930;51.464;11.764;2024-01-11T08:35:50;64.50;;;20.03;;
66129;SDS011;52930;51.464;11.764;2024-01-11T08:38:16;55.93;;;17.17;;
66129;SDS011;52930;51.464;11.764;2024-01-11T08:40:41;84.57;;;24.07;;
66129;SDS011;52930;51.464;11.764;2024-01-11T08:43:06;53.90;;;16.63;;
66129;SDS011;52930;51.464;11.764;2024-01-11T08:45:31;82.10;;;22.90;;
66129;SDS011;52930;51.464;11.764;2024-01-11T08:47:57;67.73;;;21.90;;
66129;SDS011;52930;51.464;11.764;2024-01-11T08:50:22;66.07;;;20.87;;
66129;SDS011;52930;51.464;11.764;2024-01-11T08:52:47;64.23;;;20.17;;
66129;SDS011;52930;51.464;11.764;2024-01-11T08:55:13;63.57;;;20.60;;
66129;SDS011;52930;51.464;11.764;2024-01-11T08:57:38;80.50;;;25.00;;
66129;SDS011;52930;51.464;11.764;2024-01-11T09:00:04;42.92;;;14.85;;
66129;SDS011;52930;51.464;11.764;2024-01-11T09:02:31;61.67;;;21.27;;
66129;SDS011;52930;51.464;11.764;2024-01-11T09:04:56;69.90;;;22.45;;
66129;SDS011;52930;51.464;11.764;2024-01-11T09:07:22;80.93;;;25.30;;
66129;SDS011;52930;51.464;11.764;2024-01-11T09:09:47;83.97;;;24.47;;
66129;SDS011;52930;51.464;11.764;2024-01-11T09:12:12;68.40;;;22.20;;
66129;SDS011;52930;51.464;11.764;2024-01-11T09:14:38;75.93;;;22.27;;
66129;SDS011;52930;51.464;11.764;2024-01-11T09:17:04;66.85;;;21.17;;
66129;SDS011;52930;51.464;11.764;2024-01-11T09:19:31;37.87;;;15.20;;
66129;SDS011;52930;51.464;11.764;2024-01-11T09:21:58;69.35;;;20.80;;
66129;SDS011;52930;51.464;11.764;2024-01-11T09:24:24;75.20;;;22.60;;
66129;SDS011;52930;51.464;11.764;2024-01-11T09:26:49;64.47;;;23.10;;
66129;SDS011;52930;51.464;11.764;2024-01-11T09:29:15;74.43;;;21.73;;
66129;SDS011;52930;51.464;11.764;2024-01-11T09:31:40;45.70;;;16.93;;
66129;SDS011;52930;51.464;11.764;2024-01-11T09:34:07;74.70;;;24.23;;
66129;SDS011;52930;51.464;11.764;2024-01-11T09:36:32;80.10;;;24.50;;
66129;SDS011;52930;51.464;11.764;2024-01-11T09:38:58;67.70;;;22.70;;
66129;SDS011;52930;51.464;11.764;2024-01-11T09:41:23;59.07;;;19.80;;
66129;SDS011;52930;51.464;11.764;2024-01-11T09:43:49;69.27;;;23.73;;
66129;SDS011;52930;51.464;11.764;2024-01-11T09:46:16;53.58;;;18.63;;
66129;SDS011;52930;51.464;11.764;2024-01-11T09:48:43;74.60;;;23.03;;
66129;SDS011;52930;51.464;11.764;2024-01-11T09:51:09;74.88;;;21.77;;
66129;SDS011;52930;51.464;11.764;2024-01-11T09:53:36;74.63;;;24.05;;
66129;SDS011;52930;51.464;11.764;2024-01-11T09:56:03;67.05;;;22.50;;
66129;SDS011;52930;51.464;11.764;2024-01-11T09:58:32;76.70;;;23.17;;
66129;SDS011;52930;51.464;11.764;2024-01-11T10:00:59;66.28;;;22.05;;
66129;SDS011;52930;51.464;11.764;2024-01-11T10:03:24;60.33;;;19.23;;
66129;SDS011;52930;51.464;11.764;2024-01-11T10:05:51;58.30;;;18.90;;
66129;SDS011;52930;51.464;11.764;2024-01-11T10:08:21;71.22;;;24.17;;
66129;SDS011;52930;51.464;11.764;2024-01-11T10:10:46;65.43;;;21.87;;
66129;SDS011;52930;51.464;11.764;2024-01-11T10:13:13;72.82;;;22.73;;
66129;SDS011;52930;51.464;11.764;2024-01-11T10:15:38;65.23;;;21.60;;
66129;SDS011;52930;51.464;11.764;2024-01-11T10:18:03;72.63;;;23.33;;
66129;SDS011;52930;51.464;11.764;2024-01-11T10:20:29;69.83;;;24.30;;
66129;SDS011;52930;51.464;11.764;2024-01-11T10:22:57;70.22;;;23.15;;
66129;SDS011;52930;51.464;11.764;2024-01-11T10:25:22;78.85;;;23.70;;
66129;SDS011;52930;51.464;11.764;2024-01-11T10:27:48;69.30;;;23.13;;
66129;SDS011;52930;51.464;11.764;2024-01-11T10:30:13;69.00;;;23.47;;
66129;SDS011;52930;51.464;11.764;2024-01-11T10:32:45;72.20;;;23.45;;
66129;SDS011;52930;51.464;11.764;2024-01-11T10:35:11;78.45;;;23.95;;
66129;SDS011;52930;51.464;11.764;2024-01-11T10:37:36;57.80;;;19.30;;
66129;SDS011;52930;51.464;11.764;2024-01-11T10:40:04;69.80;;;22.77;;
66129;SDS011;52930;51.464;11.764;2024-01-11T10:42:36;65.60;;;22.05;;
66129;SDS011;52930;51.464;11.764;2024-01-11T10:45:04;69.05;;;22.50;;
66129;SDS011;52930;51.464;11.764;2024-01-11T10:47:34;44.15;;;13.13;;
66129;SDS011;52930;51.464;11.764;2024-01-11T10:50:00;61.58;;;22.35;;
66129;SDS011;52930;51.464;11.764;2024-01-11T10:52:27;67.93;;;20.97;;
66129;SDS011;52930;51.464;11.764;2024-01-11T10:54:54;54.80;;;19.27;;
66129;SDS011;52930;51.464;11.764;2024-01-11T10:57:21;56.85;;;20.85;;
66129;SDS011;52930;51.464;11.764;2024-01-11T10:59:46;56.73;;;18.47;;
66129;SDS011;52930;51.464;11.764;2024-01-11T11:02:13;66.53;;;22.27;;
66129;SDS011;52930;51.464;11.764;2024-01-11T11:04:40;61.75;;;20.77;;
66129;SDS011;52930;51.464;11.764;2024-01-11T11:07:07;56.80;;;20.52;;
66129;SDS011;52930;51.464;11.764;2024-01-11T11:09:33;55.47;;;20.70;;
66129;SDS011;52930;51.464;11.764;2024-01-11T11:11:59;49.08;;;18.60;;
66129;SDS011;52930;51.464;11.764;2024-01-11T11:14:25;63.43;;;21.70;;
66129;SDS011;52930;51.464;11.764;2024-01-11T11:16:50;57.97;;;18.87;;
66129;SDS011;52930;51.464;11.764;2024-01-11T11:19:17;55.22;;;18.95;;
66129;SDS011;52930;51.464;11.764;2024-01-11T11:21:44;41.95;;;15.75;;
66129;SDS011;52930;51.464;11.764;2024-01-11T11:24:10;66.85;;;21.85;;
66129;SDS011;52930;51.464;11.764;2024-01-11T11:26:36;56.53;;;19.20;;
66129;SDS011;52930;51.464;11.764;2024-01-11T11:29:02;59.55;;;19.75;;
66129;SDS011;52930;51.464;11.764;2024-01-11T11:31:34;66.63;;;20.70;;
66129;SDS011;52930;51.464;11.764;2024-01-11T11:34:40;55.42;;;19.42;;
66129;SDS011;52930;51.464;11.764;2024-01-11T11:37:07;61.97;;;21.58;;
66129;SDS011;52930;51.464;11.764;2024-01-11T11:39:32;57.37;;;19.30;;
66129;SDS011;52930;51.464;11.764;2024-01-11T11:41:58;63.03;;;22.47;;
66129;SDS011;52930;51.464;11.764;2024-01-11T11:44:25;65.32;;;20.83;;
66129;SDS011;52930;51.464;11.764;2024-01-11T11:46:50;59.87;;;21.00;;
66129;SDS011;52930;51.464;11.764;2024-01-11T11:49:16;59.23;;;20.97;;
66129;SDS011;52930;51.464;11.764;2024-01-11T11:51:42;59.10;;;21.83;;
66129;SDS011;52930;51.464;11.764;2024-01-11T11:54:08;64.10;;;22.00;;
66129;SDS011;52930;51.464;11.764;2024-01-11T11:56:36;61.58;;;21.45;;
66129;SDS011;52930;51.464;11.764;2024-01-11T11:59:02;63.67;;;23.53;;
66129;SDS011;52930;51.464;11.764;2024-01-11T12:01:29;62.42;;;21.65;;
66129;SDS011;52930;51.464;11.764;2024-01-11T12:03:56;56.83;;;20.52;;
66129;SDS011;52930;51.464;11.764;2024-01-11T12:06:22;61.50;;;20.93;;
66129;SDS011;52930;51.464;11.764;2024-01-11T12:08:53;60.72;;;22.30;;
66129;SDS011;52930;51.464;11.764;2024-01-11T12:11:19;52.67;;;17.35;;
66129;SDS011;52930;51.464;11.764;2024-01-11T12:13:48;57.55;;;21.15;;
66129;SDS011;52930;51.464;11.764;2024-01-11T12:16:14;61.33;;;19.57;;
66129;SDS011;52930;51.464;11.764;2024-01-11T12:18:40;58.72;;;21.40;;
66129;SDS011;52930;51.464;11.764;2024-01-11T12:21:06;59.50;;;19.92;;
66129;SDS011;52930;51.464;11.764;2024-01-11T12:23:32;58.00;;;21.38;;
66129;SDS011;52930;51.464;11.764;2024-01-11T12:26:00;52.28;;;18.80;;
66129;SDS011;52930;51.464;11.764;2024-01-11T12:28:26;60.65;;;21.10;;
66129;SDS011;52930;51.464;11.764;2024-01-11T12:30:51;59.80;;;22.43;;
66129;SDS011;52930;51.464;11.764;2024-01-11T12:33:17;54.93;;;20.67;;
66129;SDS011;52930;51.464;11.764;2024-01-11T12:35:42;63.13;;;22.23;;
66129;SDS011;52930;51.464;11.764;2024-01-11T12:38:08;62.17;;;20.97;;
66129;SDS011;52930;51.464;11.764;2024-01-11T12:40:36;59.08;;;21.75;;
66129;SDS011;52930;51.464;11.764;2024-01-11T12:43:05;56.80;;;21.15;;
66129;SDS011;52930;51.464;11.764;2024-01-11T12:45:37;61.60;;;22.57;;
66129;SDS011;52930;51.464;11.764;2024-01-11T12:48:03;60.63;;;21.70;;
66129;SDS011;52930;51.464;11.764;2024-01-11T12:50:32;64.47;;;22.10;;
66129;SDS011;52930;51.464;11.764;2024-01-11T12:53:05;65.03;;;19.50;;
66129;SDS011;52930;51.464;11.764;2024-01-11T12:55:30;53.30;;;20.67;;
66129;SDS011;52930;51.464;11.764;2024-01-11T12:58:08;64.60;;;21.57;;
66129;SDS011;52930;51.464;11.764;2024-01-11T13:00:36;61.42;;;21.70;;
66129;SDS011;52930;51.464;11.764;2024-01-11T13:03:02;62.78;;;24.23;;
66129;SDS011;52930;51.464;11.764;2024-01-11T13:05:28;65.75;;;22.52;;
66129;SDS011;52930;51.464;11.764;2024-01-11T13:07:53;70.60;;;22.73;;
66129;SDS011;52930;51.464;11.764;2024-01-11T13:10:19;63.60;;;22.03;;
66129;SDS011;52930;51.464;11.764;2024-01-11T13:12:44;66.67;;;26.10;;
66129;SDS011;52930;51.464;11.764;2024-01-11T13:15:10;57.67;;;21.00;;
66129;SDS011;52930;51.464;11.764;2024-01-11T13:17:35;68.23;;;23.90;;
66129;SDS011;52930;51.464;11.764;2024-01-11T13:20:01;65.97;;;23.50;;
66129;SDS011;52930;51.464;11.764;2024-01-11T13:22:26;73.30;;;23.50;;
66129;SDS011;52930;51.464;11.764;2024-01-11T13:24:53;64.43;;;22.75;;
66129;SDS011;52930;51.464;11.764;2024-01-11T13:27:20;65.20;;;22.45;;
66129;SDS011;52930;51.464;11.764;2024-01-11T13:29:45;65.07;;;21.93;;
66129;SDS011;52930;51.464;11.764;2024-01-11T13:32:10;59.53;;;21.80;;
66129;SDS011;52930;51.464;11.764;2024-01-11T13:34:36;63.27;;;23.67;;
66129;SDS011;52930;51.464;11.764;2024-01-11T13:37:02;64.93;;;22.73;;
66129;SDS011;52930;51.464;11.764;2024-01-11T13:39:28;66.77;;;21.37;;
66129;SDS011;52930;51.464;11.764;2024-01-11T13:41:53;62.50;;;22.53;;
66129;SDS011;52930;51.464;11.764;2024-01-11T13:44:18;66.43;;;22.37;;
66129;SDS011;52930;51.464;11.764;2024-01-11T13:46:44;51.47;;;18.63;;
66129;SDS011;52930;51.464;11.764;2024-01-11T13:49:09;50.47;;;18.13;;
66129;SDS011;52930;51.464;11.764;2024-01-11T13:51:34;30.73;;;11.95;;
66129;SDS011;52930;51.464;11.764;2024-01-11T13:54:00;30.30;;;10.05;;
66129;SDS011;52930;51.464;11.764;2024-01-11T13:56:25;31.83;;;9.90;;
66129;SDS011;52930;51.464;11.764;2024-01-11T13:58:51;30.35;;;10.82;;
66129;SDS011;52930;51.464;11.764;2024-01-11T14:01:17;33.43;;;12.00;;